Grand Blanc, Michigan
Current Conditions -  °F | °C
As of 9:53 PM on Thursday 27 Nov 2014 (Local Time) from KFNT Reporting Station
Overcast Overcast  
Wind Chill: 11°   Ceiling: 4500
Heat Index: 24°   Visibility: 10mi
Dew Point: 10°   Wind: 16mph
Humidity: 55%   Direction: 310°NW
Pressure: 30.3"   Gusts: NA
Location:  42.93°N, 83.63°W
Report Text: KFNT 280253Z 31014KT 10SM OVC045 M04/M12 A3030 RMK AO2 SLP272 T10441122 53016
Loading
Personal Weather Stations






























Interactive Weather Map New forecast layout! Learn more

10-Day Weather Forecast

Advertisements
Track Severe Weather on mobile